createdAt,value
2022-08-16T00:01:14.303Z,57.24
2022-08-16T00:03:40.928Z,57.20
2022-08-16T00:06:07.580Z,57.31
2022-08-16T00:08:36.816Z,57.45
2022-08-16T00:11:06.093Z,57.28
2022-08-16T00:13:33.765Z,57.24
2022-08-16T00:17:05.688Z,57.00
2022-08-16T00:18:55.306Z,57.72
2022-08-16T00:21:22.968Z,57.42
2022-08-16T00:23:49.396Z,57.23
2022-08-16T00:26:35.446Z,57.44
2022-08-16T00:29:02.088Z,56.93
2022-08-16T00:31:58.944Z,57.21
2022-08-16T00:34:19.595Z,57.66
2022-08-16T00:36:47.078Z,58.28
2022-08-16T00:39:15.757Z,58.21
2022-08-16T00:41:44.697Z,58.38
2022-08-16T00:44:14.264Z,58.66
2022-08-16T00:46:52.964Z,58.99
2022-08-16T00:49:39.796Z,59.34
2022-08-16T00:52:29.451Z,59.63
2022-08-16T00:54:56.841Z,59.63
2022-08-16T00:57:23.959Z,59.52
2022-08-16T00:59:59.057Z,59.75
2022-08-16T01:02:31.980Z,60.01
2022-08-16T01:05:09.009Z,59.86
2022-08-16T01:07:51.351Z,59.80
2022-08-16T01:10:31.507Z,59.97
2022-08-16T01:13:00.401Z,59.59
2022-08-16T01:15:28.036Z,59.97
2022-08-16T01:17:57.484Z,59.53
2022-08-16T01:20:30.404Z,59.75
2022-08-16T01:23:58.121Z,59.37
2022-08-16T01:26:33.799Z,59.66
2022-08-16T01:29:06.545Z,58.68
2022-08-16T01:31:37.542Z,59.14
2022-08-16T01:34:25.164Z,58.97
2022-08-16T01:37:03.837Z,58.84
2022-08-16T01:39:31.580Z,59.29
2022-08-16T01:42:02.923Z,58.91
2022-08-16T01:44:37.736Z,59.30
2022-08-16T01:47:05.305Z,58.98
2022-08-16T01:49:45.375Z,58.85
2022-08-16T01:52:28.283Z,59.19
2022-08-16T01:54:57.595Z,58.86
2022-08-16T01:57:24.730Z,58.95
2022-08-16T01:59:54.544Z,58.85
2022-08-16T02:02:27.145Z,59.08
2022-08-16T02:04:54.997Z,58.85
2022-08-16T02:07:23.711Z,58.92
2022-08-16T02:09:56.928Z,58.72
2022-08-16T02:12:51.585Z,59.44
2022-08-16T02:15:14.211Z,59.37
2022-08-16T02:17:40.564Z,59.94
2022-08-16T02:20:11.632Z,59.64
2022-08-16T02:22:38.854Z,59.97
2022-08-16T02:25:10.296Z,59.98
2022-08-16T02:27:40.940Z,60.45
2022-08-16T02:30:36.747Z,60.43
2022-08-16T02:33:03.120Z,61.41
2022-08-16T02:35:30.391Z,61.64
2022-08-16T02:37:56.810Z,61.50
2022-08-16T02:40:29.017Z,61.66
2022-08-16T02:42:55.891Z,61.66
2022-08-16T02:45:28.078Z,61.85
2022-08-16T02:48:00.965Z,61.34
2022-08-16T02:50:54.952Z,60.82
2022-08-16T02:53:28.557Z,61.00
2022-08-16T02:55:56.299Z,61.15
2022-08-16T02:58:25.412Z,60.96
2022-08-16T03:00:55.754Z,61.56
2022-08-16T03:03:22.844Z,61.72
2022-08-16T03:05:52.497Z,62.52
2022-08-16T03:08:50.430Z,62.32
2022-08-16T03:11:16.653Z,62.71
2022-08-16T03:13:50.634Z,63.69
2022-08-16T03:16:38.789Z,64.25
2022-08-16T03:19:07.489Z,63.88
2022-08-16T03:21:37.755Z,63.57
2022-08-16T03:24:05.379Z,63.58
2022-08-16T03:26:32.038Z,63.29
2022-08-16T03:28:58.507Z,63.25
2022-08-16T03:31:26.440Z,62.67
2022-08-16T03:34:01.261Z,62.18
2022-08-16T03:36:30.615Z,62.92
2022-08-16T03:38:57.833Z,63.04
2022-08-16T03:41:29.291Z,63.98
2022-08-16T03:44:01.724Z,63.60
2022-08-16T03:46:47.195Z,63.54
2022-08-16T03:49:15.108Z,63.32
2022-08-16T03:51:42.490Z,63.16
2022-08-16T03:54:12.740Z,63.08
2022-08-16T03:56:39.740Z,63.14
2022-08-16T03:59:23.837Z,62.59
2022-08-16T04:01:50.188Z,62.07
2022-08-16T04:04:32.401Z,62.00
2022-08-16T04:07:00.424Z,61.97
2022-08-16T04:09:30.139Z,62.31
2022-08-16T04:11:56.615Z,62.41
2022-08-16T04:14:31.141Z,63.21
2022-08-16T04:17:00.878Z,63.11
2022-08-16T04:19:31.809Z,63.48
2022-08-16T04:21:58.521Z,64.07
2022-08-16T04:24:28.811Z,63.35
2022-08-16T04:26:55.626Z,63.55
2022-08-16T04:29:24.942Z,63.25
2022-08-16T04:31:56.590Z,62.73
2022-08-16T04:34:31.139Z,62.46
2022-08-16T04:37:01.258Z,62.65
2022-08-16T04:39:44.915Z,62.32
2022-08-16T04:42:15.414Z,62.86
2022-08-16T04:44:54.421Z,63.51
2022-08-16T04:47:31.533Z,63.25
2022-08-16T04:49:59.397Z,62.94
2022-08-16T04:52:33.748Z,63.01
2022-08-16T04:55:13.928Z,63.41
2022-08-16T04:57:42.621Z,62.88
2022-08-16T05:00:30.628Z,62.66
2022-08-16T05:03:07.032Z,62.88
2022-08-16T05:05:44.929Z,62.53
2022-08-16T05:08:27.961Z,62.44
2022-08-16T05:11:05.538Z,61.73
2022-08-16T05:13:41.694Z,61.92
2022-08-16T05:16:16.753Z,61.65
2022-08-16T05:18:47.888Z,62.00
2022-08-16T05:21:14.424Z,62.33
2022-08-16T05:23:40.907Z,62.42
2022-08-16T05:26:19.506Z,62.60
2022-08-16T05:28:55.227Z,62.89
2022-08-16T05:31:23.034Z,63.31
2022-08-16T05:33:53.447Z,63.23
2022-08-16T05:36:21.366Z,63.55
2022-08-16T05:38:48.798Z,62.99
2022-08-16T05:41:15.442Z,63.67
2022-08-16T05:43:46.895Z,63.60
2022-08-16T05:46:30.502Z,62.93
2022-08-16T05:49:08.827Z,63.57
2022-08-16T05:51:41.599Z,63.55
2022-08-16T05:54:09.627Z,64.36
2022-08-16T05:56:39.215Z,63.89
2022-08-16T05:59:06.379Z,64.16
2022-08-16T06:01:38.966Z,63.79
2022-08-16T06:04:12.936Z,63.19
2022-08-16T06:06:55.690Z,62.84
2022-08-16T06:09:25.148Z,62.59
2022-08-16T06:11:52.179Z,62.66
2022-08-16T06:14:19.254Z,62.14
2022-08-16T06:16:50.996Z,62.03
2022-08-16T06:19:17.895Z,62.00
2022-08-16T06:21:44.736Z,61.79
2022-08-16T06:24:52.823Z,61.88
2022-08-16T06:26:58.532Z,63.68
2022-08-16T06:29:25.074Z,62.72
2022-08-16T06:31:51.889Z,62.27
2022-08-16T06:34:56.149Z,63.14
2022-08-16T06:37:04.874Z,63.80
2022-08-16T06:39:31.674Z,64.67
2022-08-16T06:42:01.115Z,63.98
2022-08-16T06:44:27.605Z,63.65
2022-08-16T06:46:54.192Z,62.92
2022-08-16T06:49:20.596Z,64.92
2022-08-16T06:51:48.436Z,63.83
2022-08-16T06:54:16.110Z,62.96
2022-08-16T06:56:42.653Z,63.07
2022-08-16T06:59:10.625Z,62.99
2022-08-16T07:01:46.173Z,62.62
2022-08-16T07:04:31.568Z,61.71
2022-08-16T07:07:00.776Z,61.31
2022-08-16T07:09:29.771Z,60.44
2022-08-16T07:12:03.687Z,60.05
2022-08-16T07:14:30.803Z,59.87
2022-08-16T07:16:58.287Z,59.68
2022-08-16T07:20:03.812Z,59.71
2022-08-16T07:22:37.345Z,59.39
2022-08-16T07:24:59.210Z,59.11
2022-08-16T07:27:25.707Z,58.63
2022-08-16T07:29:55.533Z,58.32
2022-08-16T07:32:29.603Z,57.68
2022-08-16T07:34:58.166Z,56.79
2022-08-16T07:37:24.824Z,56.46
2022-08-16T07:39:51.891Z,57.11
2022-08-16T07:42:20.373Z,56.61
2022-08-16T07:44:55.505Z,55.68
2022-08-16T07:47:24.607Z,55.26
2022-08-16T07:49:58.302Z,53.98
2022-08-16T07:52:25.005Z,54.65
2022-08-16T07:54:57.203Z,54.49
2022-08-16T07:57:24.196Z,55.20
2022-08-16T07:59:50.924Z,55.59
2022-08-16T08:02:20.605Z,54.76
2022-08-16T08:04:47.625Z,53.94
2022-08-16T08:07:16.283Z,53.96
2022-08-16T08:09:43.365Z,53.76
2022-08-16T08:12:10.008Z,53.79
2022-08-16T08:14:56.377Z,53.04
2022-08-16T08:17:22.839Z,52.79
2022-08-16T08:19:53.252Z,52.39
2022-08-16T08:22:22.337Z,51.80
2022-08-16T08:24:52.137Z,51.85
2022-08-16T08:27:22.410Z,51.61
2022-08-16T08:30:49.681Z,51.10
2022-08-16T08:32:58.311Z,51.10
2022-08-16T08:35:26.871Z,51.18
2022-08-16T08:37:56.554Z,51.17
2022-08-16T08:40:26.739Z,50.96
2022-08-16T08:43:00.123Z,50.84
2022-08-16T08:45:53.665Z,50.37
2022-08-16T08:48:33.271Z,49.98
2022-08-16T08:51:03.722Z,49.88
2022-08-16T08:53:30.847Z,50.50
2022-08-16T08:55:58.898Z,50.88
2022-08-16T08:58:26.035Z,50.24
2022-08-16T09:01:01.771Z,50.34
2022-08-16T09:03:29.235Z,49.95
2022-08-16T09:05:59.207Z,49.17
2022-08-16T09:08:27.363Z,48.76
2022-08-16T09:11:02.421Z,49.02
2022-08-16T09:13:32.697Z,48.04
2022-08-16T09:16:00.091Z,47.79
2022-08-16T09:18:35.779Z,47.92
2022-08-16T09:21:06.937Z,47.20
2022-08-16T09:23:36.471Z,46.85
2022-08-16T09:26:43.977Z,45.97
2022-08-16T09:29:14.554Z,46.00
2022-08-16T09:31:41.924Z,46.12
2022-08-16T09:34:09.203Z,45.85
2022-08-16T09:36:37.477Z,45.96
2022-08-16T09:39:15.826Z,46.09
2022-08-16T09:41:43.343Z,45.78
2022-08-16T09:45:13.146Z,45.79
2022-08-16T09:47:12.836Z,45.16
2022-08-16T09:49:40.966Z,45.48
2022-08-16T09:52:09.477Z,45.51
2022-08-16T09:54:37.205Z,45.50
2022-08-16T09:57:04.614Z,44.99
2022-08-16T09:59:31.326Z,44.26
2022-08-16T10:02:26.069Z,44.13
2022-08-16T10:04:54.443Z,43.80
2022-08-16T10:07:21.851Z,43.88
2022-08-16T10:09:55.833Z,43.42
2022-08-16T10:12:55.645Z,42.78
2022-08-16T10:15:22.633Z,44.85
2022-08-16T10:18:01.052Z,45.71
2022-08-16T10:20:34.508Z,44.37
2022-08-16T10:23:07.537Z,43.87
2022-08-16T10:27:17.756Z,43.71
2022-08-16T10:28:28.636Z,43.22
2022-08-16T10:30:56.558Z,42.93
2022-08-16T10:33:27.297Z,42.66
2022-08-16T10:36:02.625Z,41.88
2022-08-16T10:38:30.337Z,41.74
2022-08-16T10:41:00.289Z,41.64
2022-08-16T10:43:27.684Z,41.30
2022-08-16T10:46:00.201Z,40.89
2022-08-16T10:48:28.676Z,39.82
2022-08-16T10:50:58.484Z,39.27
2022-08-16T10:53:33.114Z,39.37
2022-08-16T10:56:52.833Z,38.23
2022-08-16T10:58:57.655Z,38.36
2022-08-16T11:02:21.705Z,38.73
2022-08-16T11:10:20.951Z,38.91
2022-08-16T11:12:52.630Z,38.88
2022-08-16T11:15:20.183Z,38.56
2022-08-16T11:18:47.889Z,37.61
2022-08-16T11:20:41.938Z,37.67
2022-08-16T11:23:09.820Z,37.13
2022-08-16T11:31:10.879Z,36.22
2022-08-16T11:33:55.523Z,37.14
2022-08-16T11:36:28.041Z,36.89
2022-08-16T11:38:57.734Z,36.55
2022-08-16T11:41:24.711Z,36.82
2022-08-16T11:43:52.923Z,36.62
2022-08-16T11:46:43.461Z,36.98
2022-08-16T11:49:12.703Z,36.45
2022-08-16T11:51:43.710Z,37.10
2022-08-16T11:54:20.582Z,37.28
2022-08-16T11:56:57.341Z,37.62
2022-08-16T11:59:28.703Z,37.67
2022-08-16T12:02:04.165Z,36.76
2022-08-16T12:04:45.505Z,36.58
2022-08-16T12:07:18.755Z,35.82
2022-08-16T12:09:45.523Z,36.54
2022-08-16T12:12:12.240Z,36.00
2022-08-16T12:14:38.607Z,35.42
2022-08-16T12:17:08.306Z,35.66
2022-08-16T12:19:35.940Z,35.26
2022-08-16T12:22:05.553Z,34.95
2022-08-16T12:24:32.862Z,35.13
2022-08-16T12:27:00.023Z,35.49
2022-08-16T12:29:29.461Z,35.63
2022-08-16T12:31:59.240Z,34.97
2022-08-16T12:34:29.590Z,34.89
2022-08-16T12:36:56.462Z,34.63
2022-08-16T12:39:23.769Z,33.70
2022-08-16T12:41:56.211Z,33.44
2022-08-16T12:44:25.783Z,33.50
2022-08-16T12:47:11.262Z,33.24
2022-08-16T12:49:42.268Z,32.96
2022-08-16T12:52:08.983Z,32.27
2022-08-16T12:54:37.309Z,32.57
2022-08-16T12:57:08.313Z,32.09
2022-08-16T12:59:40.539Z,32.31
2022-08-16T13:02:07.782Z,32.07
2022-08-16T13:04:39.245Z,31.39
2022-08-16T13:07:08.376Z,31.36
2022-08-16T13:09:42.626Z,31.04
2022-08-16T13:12:19.598Z,31.05
2022-08-16T13:14:48.011Z,30.81
2022-08-16T13:17:23.036Z,30.89
2022-08-16T13:20:11.286Z,30.37
2022-08-16T13:22:42.088Z,29.55
2022-08-16T13:25:18.966Z,29.92
2022-08-16T13:28:01.622Z,28.50
2022-08-16T13:30:37.358Z,28.96
2022-08-16T13:33:12.387Z,28.75
2022-08-16T13:35:43.064Z,28.28
2022-08-16T13:38:10.278Z,28.08
2022-08-16T13:40:48.527Z,28.19
2022-08-16T13:43:17.871Z,28.57
2022-08-16T13:45:44.867Z,28.92
2022-08-16T13:48:11.524Z,29.06
2022-08-16T13:50:51.890Z,28.85
2022-08-16T13:53:18.803Z,29.15
2022-08-16T13:55:58.957Z,29.26
2022-08-16T13:58:34.759Z,29.64
2022-08-16T14:01:04.640Z,29.04
2022-08-16T14:03:36.787Z,28.78
2022-08-16T14:06:03.633Z,28.39
2022-08-16T14:08:30.047Z,28.53
2022-08-16T14:10:56.823Z,28.49
2022-08-16T14:13:23.783Z,28.45
2022-08-16T14:15:50.633Z,27.59
2022-08-16T14:18:20.680Z,27.62
2022-08-16T14:20:48.847Z,27.71
2022-08-16T14:23:17.971Z,27.95
2022-08-16T14:25:54.036Z,27.62
2022-08-16T14:28:21.953Z,27.10
2022-08-16T14:30:50.497Z,27.76
2022-08-16T14:33:18.286Z,28.02
2022-08-16T14:35:48.995Z,27.27
2022-08-16T14:38:18.777Z,26.75
2022-08-16T14:40:50.969Z,27.26
2022-08-16T14:43:19.913Z,27.17
2022-08-16T14:45:46.981Z,26.89
2022-08-16T14:48:20.329Z,26.62
2022-08-16T14:50:51.086Z,26.97
2022-08-16T14:53:18.134Z,26.95
2022-08-16T14:55:44.491Z,26.96
2022-08-16T14:58:19.283Z,25.78
2022-08-16T15:00:47.679Z,25.59
2022-08-16T15:03:17.945Z,25.64
2022-08-16T15:05:44.295Z,25.51
2022-08-16T15:08:11.364Z,25.02
2022-08-16T15:10:42.749Z,24.84
2022-08-16T15:13:12.783Z,25.24
2022-08-16T15:15:41.920Z,24.70
2022-08-16T15:18:12.084Z,25.06
2022-08-16T15:20:39.440Z,25.08
2022-08-16T15:23:08.435Z,25.07
2022-08-16T15:25:36.704Z,24.69
2022-08-16T15:28:23.417Z,24.27
2022-08-16T15:30:59.693Z,24.27
2022-08-16T15:33:27.213Z,24.41
2022-08-16T15:35:55.489Z,24.62
2022-08-16T15:38:55.179Z,25.07
2022-08-16T15:41:13.342Z,25.35
2022-08-16T15:43:40.403Z,25.06
2022-08-16T15:46:35.002Z,24.88
2022-08-16T15:49:09.461Z,24.58
2022-08-16T15:51:36.807Z,24.09
2022-08-16T15:54:21.191Z,24.66
2022-08-16T15:56:54.894Z,24.11
2022-08-16T15:59:24.027Z,24.10
2022-08-16T16:01:54.483Z,24.28
2022-08-16T16:04:23.099Z,23.94
2022-08-16T16:06:55.009Z,24.53
2022-08-16T16:09:26.224Z,23.83
2022-08-16T16:12:16.223Z,23.01
2022-08-16T16:14:51.384Z,22.90
2022-08-16T16:17:17.793Z,22.70
2022-08-16T16:19:44.196Z,22.58
2022-08-16T16:22:10.816Z,22.68
2022-08-16T16:24:39.761Z,22.68
2022-08-16T16:27:06.701Z,21.70
2022-08-16T16:29:37.195Z,21.56
2022-08-16T16:32:07.585Z,20.97
2022-08-16T16:34:35.374Z,21.31
2022-08-16T16:37:02.554Z,21.83
2022-08-16T16:39:31.682Z,21.49
2022-08-16T16:41:59.426Z,21.33
2022-08-16T16:44:33.839Z,21.59
2022-08-16T16:47:03.219Z,21.08
2022-08-16T16:49:29.645Z,20.82
2022-08-16T16:52:06.433Z,21.76
2022-08-16T16:54:35.425Z,21.43
2022-08-16T16:57:02.167Z,21.77
2022-08-16T16:59:28.768Z,21.34
2022-08-16T17:02:38.180Z,21.54
2022-08-16T17:04:43.605Z,21.16
2022-08-16T17:07:11.080Z,20.65
2022-08-16T17:09:40.520Z,21.92
2022-08-16T17:12:08.318Z,22.29
2022-08-16T17:14:35.520Z,22.50
2022-08-16T17:17:08.612Z,22.90
2022-08-16T17:19:41.252Z,22.39
2022-08-16T17:22:19.743Z,22.84
2022-08-16T17:24:50.207Z,23.05
2022-08-16T17:27:19.327Z,22.20
2022-08-16T17:30:15.606Z,22.34
2022-08-16T17:32:48.009Z,22.52
2022-08-16T17:35:19.190Z,22.45
2022-08-16T17:37:51.531Z,22.60
2022-08-16T17:40:30.181Z,22.78
2022-08-16T17:43:10.124Z,22.59
2022-08-16T17:45:38.293Z,23.33
2022-08-16T17:48:05.402Z,23.66
2022-08-16T17:50:32.759Z,23.20
2022-08-16T17:53:00.654Z,23.79
2022-08-16T17:55:31.241Z,24.25
2022-08-16T17:57:57.902Z,24.00
2022-08-16T18:00:25.876Z,24.45
2022-08-16T18:02:57.991Z,25.08
2022-08-16T18:05:27.079Z,24.72
2022-08-16T18:07:53.909Z,24.96
2022-08-16T18:10:32.658Z,24.76
2022-08-16T18:13:01.073Z,25.09
2022-08-16T18:15:27.860Z,25.51
2022-08-16T18:17:54.657Z,25.65
2022-08-16T18:20:42.214Z,25.53
2022-08-16T18:23:26.787Z,25.82
2022-08-16T18:25:56.868Z,26.10
2022-08-16T18:28:24.263Z,26.49
2022-08-16T18:30:52.349Z,26.54
2022-08-16T18:33:20.971Z,26.60
2022-08-16T18:35:47.611Z,26.68
2022-08-16T18:38:14.275Z,27.25
2022-08-16T18:40:41.894Z,27.29
2022-08-16T18:43:13.338Z,27.65
2022-08-16T18:45:42.215Z,27.19
2022-08-16T18:48:10.722Z,27.38
2022-08-16T18:51:03.120Z,27.64
2022-08-16T18:53:27.983Z,28.03
2022-08-16T18:55:57.082Z,27.89
2022-08-16T18:58:24.578Z,28.15
2022-08-16T19:00:56.697Z,28.41
2022-08-16T19:03:30.084Z,28.56
2022-08-16T19:06:04.464Z,28.79
2022-08-16T19:08:31.616Z,28.94
2022-08-16T19:10:58.032Z,29.32
2022-08-16T19:13:26.839Z,30.17
2022-08-16T19:15:55.933Z,30.22
2022-08-16T19:18:25.087Z,30.37
2022-08-16T19:20:54.507Z,30.32
2022-08-16T19:23:24.512Z,30.38
2022-08-16T19:25:57.159Z,30.92
2022-08-16T19:28:57.910Z,31.25
2022-08-16T19:31:29.240Z,31.16
2022-08-16T19:33:56.638Z,31.09
2022-08-16T19:36:31.068Z,31.10
2022-08-16T19:39:05.471Z,31.61
2022-08-16T19:41:34.330Z,31.71
2022-08-16T19:44:00.711Z,32.12
2022-08-16T19:46:27.061Z,32.75
2022-08-16T19:48:53.409Z,32.87
2022-08-16T19:51:19.778Z,32.99
2022-08-16T19:53:46.133Z,33.44
2022-08-16T19:56:12.574Z,33.60
2022-08-16T19:58:47.352Z,34.00
2022-08-16T20:01:25.318Z,34.77
2022-08-16T20:03:51.876Z,34.94
2022-08-16T20:06:38.086Z,35.05
2022-08-16T20:09:04.937Z,35.73
2022-08-16T20:11:31.479Z,35.53
2022-08-16T20:13:58.088Z,35.08
2022-08-16T20:16:24.502Z,36.30
2022-08-16T20:18:51.170Z,36.79
2022-08-16T20:21:18.043Z,37.99
2022-08-16T20:23:44.463Z,37.83
2022-08-16T20:26:10.799Z,37.13
2022-08-16T20:28:51.684Z,37.60
2022-08-16T20:31:19.806Z,37.88
2022-08-16T20:33:46.382Z,37.58
2022-08-16T20:36:16.102Z,37.58
2022-08-16T20:38:45.733Z,37.60
2022-08-16T20:41:12.450Z,37.82
2022-08-16T20:43:38.886Z,37.70
2022-08-16T20:46:05.397Z,37.74
2022-08-16T20:48:31.721Z,38.20
2022-08-16T20:50:58.108Z,38.40
2022-08-16T20:53:24.440Z,38.62
2022-08-16T20:55:50.867Z,38.63
2022-08-16T20:58:17.198Z,38.70
2022-08-16T21:00:45.255Z,39.05
2022-08-16T21:03:13.007Z,38.87
2022-08-16T21:05:39.508Z,39.29
2022-08-16T21:08:37.797Z,39.53
2022-08-16T21:10:52.524Z,39.82
2022-08-16T21:13:20.925Z,39.57
2022-08-16T21:15:47.479Z,39.80
2022-08-16T21:18:13.811Z,39.87
2022-08-16T21:20:40.215Z,40.11
2022-08-16T21:23:08.695Z,39.59
2022-08-16T21:25:36.402Z,40.03
2022-08-16T21:28:38.677Z,40.00
2022-08-16T21:30:52.335Z,40.49
2022-08-16T21:33:19.702Z,40.55
2022-08-16T21:35:47.739Z,40.78
2022-08-16T21:38:29.857Z,41.12
2022-08-16T21:40:57.038Z,41.13
2022-08-16T21:43:25.278Z,41.02
2022-08-16T21:45:54.176Z,41.02
2022-08-16T21:48:34.392Z,41.40
2022-08-16T21:51:06.122Z,41.25
2022-08-16T21:53:33.145Z,41.58
2022-08-16T21:56:00.787Z,41.52
2022-08-16T21:58:27.514Z,41.29
2022-08-16T22:00:53.839Z,41.39
2022-08-16T22:03:20.993Z,42.86
2022-08-16T22:06:11.661Z,41.75
2022-08-16T22:08:35.673Z,41.60
2022-08-16T22:11:12.205Z,42.54
2022-08-16T22:13:38.661Z,42.78
2022-08-16T22:16:07.481Z,42.59
2022-08-16T22:18:33.836Z,42.68
2022-08-16T22:21:00.191Z,42.55
2022-08-16T22:23:26.767Z,43.15
2022-08-16T22:25:55.014Z,43.42
2022-08-16T22:28:22.778Z,42.36
2022-08-16T22:30:49.732Z,42.95
2022-08-16T22:33:19.607Z,42.76
2022-08-16T22:36:12.717Z,43.14
2022-08-16T22:38:56.254Z,43.48
2022-08-16T22:41:24.765Z,43.61
2022-08-16T22:43:51.395Z,43.56
2022-08-16T22:46:19.292Z,43.59
2022-08-16T22:48:45.789Z,43.85
2022-08-16T22:51:12.955Z,43.56
2022-08-16T22:53:39.356Z,44.91
2022-08-16T22:56:05.911Z,45.13
2022-08-16T22:58:36.362Z,45.12
2022-08-16T23:01:04.353Z,45.40
2022-08-16T23:03:30.853Z,44.75
2022-08-16T23:06:00.275Z,44.42
2022-08-16T23:08:38.676Z,44.43
2022-08-16T23:11:20.775Z,44.06
2022-08-16T23:13:53.185Z,44.59
2022-08-16T23:16:33.629Z,45.07
2022-08-16T23:19:09.593Z,44.78
2022-08-16T23:21:38.081Z,44.48
2022-08-16T23:24:06.394Z,44.32
2022-08-16T23:26:47.312Z,44.70
2022-08-16T23:29:24.013Z,44.87
2022-08-16T23:31:55.795Z,44.86
2022-08-16T23:34:22.579Z,44.78
2022-08-16T23:36:48.977Z,45.23
2022-08-16T23:39:15.445Z,45.89
2022-08-16T23:41:41.967Z,46.10
2022-08-16T23:44:57.429Z,46.69
2022-08-16T23:46:55.214Z,47.46
2022-08-16T23:50:01.897Z,47.76
2022-08-16T23:52:10.048Z,48.07
2022-08-16T23:54:36.701Z,48.16
2022-08-16T23:57:03.449Z,47.44
2022-08-16T23:59:29.832Z,47.71
